CST,Max TemperatureF,Mean TemperatureF,Min TemperatureF,Max Dew PointF,MeanDew PointF,Min DewpointF,Max Humidity, Mean Humidity, Min Humidity, Max Sea Level PressureIn, Mean Sea Level PressureIn, Min Sea Level PressureIn, Max VisibilityMiles, Mean VisibilityMiles, Min VisibilityMiles, Max Wind SpeedMPH, Mean Wind SpeedMPH, Max Gust SpeedMPH,PrecipitationIn, CloudCover, Events, WindDirDegrees
2012-12-1,56,44,32,54,45,31,100,93,85,30.10,29.92,29.84,8,5,0,13,4,15,0.02,6,Fog-Rain,145
2012-12-2,62,54,45,52,48,45,100,82,64,30.02,29.94,29.86,8,2,0,10,2,15,0.00,6,Fog,153
2012-12-3,68,58,47,59,51,37,100,81,62,29.99,29.83,29.71,10,7,0,29,12,35,0.00,4,Fog,177
2012-12-4,60,46,31,37,29,21,82,56,30,30.38,30.20,30.01,10,10,10,16,7,22,0.00,0,,314
2012-12-5,41,34,26,32,23,18,76,61,45,30.45,30.32,30.12,10,10,10,15,9,18,0.00,0,,102
2012-12-6,51,45,38,39,35,32,83,71,59,30.12,29.99,29.92,10,10,10,15,8,18,T,4,,187
2012-12-7,43,39,35,33,31,29,92,75,57,29.98,29.96,29.91,10,10,6,13,7,16,0.04,8,Rain-Snow,28
2012-12-8,42,37,31,32,30,27,89,75,60,30.07,30.01,29.94,10,10,8,14,7,18,0.01,5,,41
2012-12-9,39,32,24,37,33,19,100,89,78,30.01,29.87,29.78,10,6,2,25,10,31,0.07,8,Rain,3
2012-12-10,26,21,15,20,17,11,92,80,68,30.04,29.96,29.87,10,10,10,26,10,33,0.00,6,,294
2012-12-11,39,26,13,23,17,10,96,72,48,30.14,30.05,30.00,10,10,10,17,6,23,0.00,3,,220
2012-12-12,49,36,22,24,21,18,81,58,34,30.23,30.17,30.14,10,10,10,23,9,28,0.00,0,,164
2012-12-13,50,38,25,23,21,20,81,57,32,30.19,30.14,30.08,10,10,10,22,8,29,0.00,0,,193
2012-12-14,50,36,22,39,27,18,88,65,42,30.17,30.07,29.89,10,10,4,15,5,21,0.04,2,Rain,137
2012-12-15,50,45,40,47,43,38,100,95,89,29.86,29.61,29.50,10,6,2,18,10,24,0.42,8,Rain,192
2012-12-16,45,39,33,40,34,30,92,86,79,29.81,29.72,29.61,10,8,5,20,10,25,0.00,8,,293
2012-12-17,33,29,25,29,27,24,92,85,78,29.79,29.76,29.70,7,5,2,12,3,14,0.00,7,,327
2012-12-18,44,37,29,36,31,28,100,85,70,29.92,29.69,29.53,10,6,3,22,10,26,T,8,,181
2012-12-19,37,35,33,34,31,30,96,89,82,30.05,29.89,29.66,9,4,2,22,8,32,0.27,8,Rain-Snow-Thunderstorm,69
2012-12-20,35,25,15,34,27,10,100,89,77,29.96,29.58,29.37,10,4,0,35,25,49,0.42,8,Fog-Rain-Snow,351
2012-12-21,22,17,11,11,8,4,92,77,61,30.32,30.22,30.00,10,10,8,28,13,40,0.00,1,,303
2012-12-22,30,19,8,18,13,6,92,75,58,30.31,30.12,29.99,10,10,8,12,3,14,0.00,0,,126
2012-12-23,25,19,13,21,15,10,96,81,65,30.09,30.04,29.99,10,8,6,15,7,17,0.00,3,,32
2012-12-24,25,22,19,22,18,12,100,87,74,30.25,30.03,29.92,10,5,1,16,9,21,T,8,Snow,312
2012-12-25,20,15,10,12,7,3,76,69,61,30.43,30.35,30.24,10,10,10,16,9,20,0.00,1,,1
2012-12-26,27,21,14,18,13,6,80,74,67,30.30,30.24,30.17,10,10,10,15,10,21,0.00,7,,354
2012-12-27,29,20,10,23,16,8,92,78,63,30.27,30.18,30.09,10,10,10,13,7,16,0.00,4,,64
2012-12-28,30,28,26,25,24,21,92,85,78,30.10,30.00,29.94,10,6,2,9,5,12,T,8,Snow,58
2012-12-29,27,18,8,23,15,4,92,83,73,30.31,30.13,29.96,10,6,4,22,10,26,T,6,Snow,301
2012-12-30,37,22,6,25,16,3,91,78,64,30.37,30.23,30.05,10,8,4,18,6,28,0.00,0,,167
2012-12-31,35,25,15,25,13,6,75,68,61,30.26,30.17,30.06,10,10,10,17,10,23,0.00,5,,308